Nemo, South Dakota
Current Conditions -  °F | °C
As of 5:28 AM on Thursday 18 Dec 2014 (Local Time) from KRCA Reporting Station
Haze Haze  
Wind Chill: 14°   Ceiling: 200
Heat Index: 21°   Visibility: 1.7mi
Dew Point: 19°   Wind: 6mph
Humidity: 93%   Direction: 190°S
Pressure: 29.97"   Gusts: NA
Location:  44.19°N, 103.51°W
Report Text: KRCA 181228Z AUTO 19005KT 1 3/4SM BR OVC002 M06/M07 A2997 RMK AO2 VIS 1 3/4V3 $
Loading
Personal Weather Stations






























Interactive Weather Map New forecast layout! Learn more

10-Day Weather Forecast

Advertisements
Track Severe Weather on mobile